TROJ01 YAMB-YWLM
Flight info
| Callsign | TROJ01 |
|---|---|
| Flight time | 1h 18m |
| Altitude | 23000 |
| Route | AMB DCT COWIE DCT 2741S15320E 2748S15326E DCT LOTMA DCT SEMAJ DCT 2938S15349E DCT 3020S15339E/N0325F260 3045S15332E DCT 3241S15234E 3306S15210E DCT WLM |
| Aircraft | C30J/M-SDE2E3FGRY/H |
Departure
| Time | 2026-04-30 07:27 |
|---|---|
| Airport | RAAF Base Amberley (YAMB) |
Arrival
| Time | 2026-04-30 08:45 |
|---|---|
| Airport | Newcastle Airport (YWLM) |
| Time | Latitude | Longitude | Altitude | Speed | Heading |
|---|---|---|---|---|---|
| 2026-04-30 07:05 | -27.62487 | 152.70365 | 95 ft | 0 kts | 339° |
| 2026-04-30 07:24 | -27.62483 | 152.70364 | 94 ft | 7 kts | 339° |
| 2026-04-30 07:24 | -27.62401 | 152.70401 | 94 ft | 16 kts | 10° |
| 2026-04-30 07:24 | -27.62288 | 152.70368 | 96 ft | 19 kts | 351° |
| 2026-04-30 07:24 | -27.62230 | 152.70393 | 97 ft | 0 kts | 46° |
| 2026-04-30 07:25 | -27.62222 | 152.70408 | 97 ft | 13 kts | 62° |
| 2026-04-30 07:26 | -27.62210 | 152.70534 | 101 ft | 16 kts | 130° |
| 2026-04-30 07:26 | -27.62253 | 152.70561 | 99 ft | 0 kts | 159° |
| 2026-04-30 07:26 | -27.62309 | 152.70586 | 97 ft | 44 kts | 158° |
| 2026-04-30 07:26 | -27.62897 | 152.70842 | 103 ft | 130 kts | 159° |
| 2026-04-30 07:27 | -27.63874 | 152.71255 | 394 ft | 164 kts | 161° |
| 2026-04-30 07:27 | -27.64999 | 152.71714 | 956 ft | 177 kts | 160° |
| 2026-04-30 07:27 | -27.66034 | 152.72375 | 1860 ft | 171 kts | 134° |
| 2026-04-30 07:27 | -27.66680 | 152.73464 | 2768 ft | 164 kts | 113° |
| 2026-04-30 07:28 | -27.66855 | 152.74745 | 3630 ft | 167 kts | 94° |
| 2026-04-30 07:28 | -27.66815 | 152.76058 | 4500 ft | 169 kts | 90° |
| 2026-04-30 07:28 | -27.66744 | 152.77383 | 5340 ft | 170 kts | 90° |
| 2026-04-30 07:28 | -27.66677 | 152.78723 | 6148 ft | 173 kts | 90° |
| 2026-04-30 07:29 | -27.66630 | 152.80100 | 6912 ft | 178 kts | 93° |
| 2026-04-30 07:29 | -27.66697 | 152.81506 | 7667 ft | 181 kts | 97° |
| 2026-04-30 07:29 | -27.66846 | 152.82915 | 8474 ft | 181 kts | 100° |
| 2026-04-30 07:29 | -27.67040 | 152.84336 | 9257 ft | 185 kts | 101° |
| 2026-04-30 07:30 | -27.67439 | 152.87266 | 10732 ft | 196 kts | 95° |
| 2026-04-30 07:30 | -27.67466 | 152.88820 | 11412 ft | 200 kts | 92° |
| 2026-04-30 07:30 | -27.67470 | 152.90399 | 12097 ft | 203 kts | 92° |
| 2026-04-30 07:31 | -27.67481 | 152.92009 | 12778 ft | 207 kts | 92° |
| 2026-04-30 07:31 | -27.67502 | 152.93641 | 13445 ft | 210 kts | 92° |
| 2026-04-30 07:31 | -27.67528 | 152.95299 | 14094 ft | 213 kts | 92° |
| 2026-04-30 07:31 | -27.67559 | 152.96983 | 14669 ft | 217 kts | 92° |
| 2026-04-30 07:32 | -27.67593 | 152.98690 | 15247 ft | 218 kts | 93° |
| 2026-04-30 07:32 | -27.67629 | 153.00416 | 15816 ft | 221 kts | 92° |
| 2026-04-30 07:32 | -27.67665 | 153.02149 | 16405 ft | 223 kts | 92° |
| 2026-04-30 07:32 | -27.67703 | 153.03910 | 16936 ft | 226 kts | 92° |
| 2026-04-30 07:33 | -27.67742 | 153.05704 | 17432 ft | 230 kts | 92° |
| 2026-04-30 07:33 | -27.67781 | 153.07512 | 17987 ft | 232 kts | 92° |
| 2026-04-30 07:33 | -27.67822 | 153.09360 | 18315 ft | 244 kts | 92° |
| 2026-04-30 07:33 | -27.67865 | 153.11349 | 18359 ft | 264 kts | 92° |
| 2026-04-30 07:34 | -27.67911 | 153.13492 | 18342 ft | 282 kts | 92° |
| 2026-04-30 07:34 | -27.67959 | 153.15763 | 18333 ft | 296 kts | 92° |
| 2026-04-30 07:34 | -27.68008 | 153.18133 | 18362 ft | 306 kts | 92° |
| 2026-04-30 07:34 | -27.68052 | 153.20408 | 19420 ft | 272 kts | 92° |
| 2026-04-30 07:35 | -27.68093 | 153.22447 | 20374 ft | 251 kts | 92° |
| 2026-04-30 07:35 | -27.68132 | 153.24386 | 20981 ft | 246 kts | 92° |
| 2026-04-30 07:35 | -27.68172 | 153.26316 | 21415 ft | 247 kts | 92° |
| 2026-04-30 07:35 | -27.68212 | 153.28263 | 21812 ft | 249 kts | 92° |
| 2026-04-30 07:36 | -27.68251 | 153.30227 | 22172 ft | 253 kts | 92° |
| 2026-04-30 07:36 | -27.68441 | 153.32205 | 22492 ft | 256 kts | 109° |
| 2026-04-30 07:36 | -27.69306 | 153.33932 | 22812 ft | 255 kts | 136° |
| 2026-04-30 07:36 | -27.70619 | 153.35271 | 23167 ft | 255 kts | 144° |
| 2026-04-30 07:37 | -27.72036 | 153.36531 | 23316 ft | 266 kts | 144° |
| 2026-04-30 07:37 | -27.73534 | 153.37831 | 23345 ft | 279 kts | 146° |
| 2026-04-30 07:37 | -27.75119 | 153.39198 | 23332 ft | 293 kts | 145° |
| 2026-04-30 07:37 | -27.76771 | 153.40618 | 23331 ft | 304 kts | 145° |
| 2026-04-30 07:38 | -27.78482 | 153.42087 | 23331 ft | 314 kts | 145° |
| 2026-04-30 07:38 | -27.80237 | 153.43613 | 23326 ft | 322 kts | 144° |
| 2026-04-30 07:38 | -27.81980 | 153.45253 | 23331 ft | 330 kts | 142° |
| 2026-04-30 07:38 | -27.83727 | 153.46918 | 23328 ft | 336 kts | 143° |
| 2026-04-30 07:39 | -27.85550 | 153.48649 | 23328 ft | 340 kts | 142° |
| 2026-04-30 07:39 | -27.87375 | 153.50381 | 23325 ft | 344 kts | 142° |
| 2026-04-30 07:39 | -27.89220 | 153.52130 | 23323 ft | 348 kts | 142° |
| 2026-04-30 07:39 | -27.91078 | 153.53894 | 23323 ft | 351 kts | 143° |
| 2026-04-30 07:40 | -27.92954 | 153.55674 | 23331 ft | 353 kts | 142° |
| 2026-04-30 07:40 | -27.94838 | 153.57463 | 23330 ft | 355 kts | 142° |
| 2026-04-30 07:40 | -27.96704 | 153.59237 | 23328 ft | 356 kts | 142° |
| 2026-04-30 07:40 | -27.98602 | 153.61040 | 23332 ft | 357 kts | 142° |
| 2026-04-30 07:41 | -28.00532 | 153.62875 | 23331 ft | 358 kts | 142° |
| 2026-04-30 07:41 | -28.02413 | 153.64665 | 23324 ft | 359 kts | 142° |
| 2026-04-30 07:41 | -28.04325 | 153.66486 | 23323 ft | 360 kts | 142° |
| 2026-04-30 07:41 | -28.06243 | 153.68312 | 23333 ft | 360 kts | 141° |
| 2026-04-30 07:42 | -28.08157 | 153.70137 | 23331 ft | 360 kts | 142° |
| 2026-04-30 07:42 | -28.10075 | 153.71966 | 23327 ft | 361 kts | 142° |
| 2026-04-30 07:42 | -28.12099 | 153.73633 | 23328 ft | 358 kts | 152° |
| 2026-04-30 07:42 | -28.14324 | 153.74875 | 23324 ft | 356 kts | 161° |
| 2026-04-30 07:43 | -28.16672 | 153.75744 | 23326 ft | 355 kts | 167° |
| 2026-04-30 07:43 | -28.19053 | 153.76469 | 23327 ft | 354 kts | 168° |
| 2026-04-30 07:43 | -28.21444 | 153.77151 | 23325 ft | 354 kts | 168° |
| 2026-04-30 07:43 | -28.23834 | 153.77808 | 23325 ft | 355 kts | 169° |
| 2026-04-30 07:44 | -28.26235 | 153.78455 | 23328 ft | 355 kts | 169° |
| 2026-04-30 07:44 | -28.28639 | 153.79099 | 23329 ft | 355 kts | 169° |
| 2026-04-30 07:44 | -28.31037 | 153.79738 | 23329 ft | 355 kts | 169° |
| 2026-04-30 07:44 | -28.33441 | 153.80378 | 23330 ft | 354 kts | 169° |
| 2026-04-30 07:45 | -28.35839 | 153.81017 | 23333 ft | 354 kts | 169° |
| 2026-04-30 07:45 | -28.38237 | 153.81655 | 23329 ft | 354 kts | 168° |
| 2026-04-30 07:45 | -28.40633 | 153.82293 | 23334 ft | 354 kts | 168° |
| 2026-04-30 07:45 | -28.43028 | 153.82931 | 23337 ft | 354 kts | 168° |
| 2026-04-30 07:46 | -28.45423 | 153.83570 | 23331 ft | 353 kts | 168° |
| 2026-04-30 07:46 | -28.47815 | 153.84208 | 23335 ft | 353 kts | 168° |
| 2026-04-30 07:46 | -28.50212 | 153.84848 | 23338 ft | 353 kts | 168° |
| 2026-04-30 07:46 | -28.52602 | 153.85486 | 23337 ft | 353 kts | 169° |
| 2026-04-30 07:47 | -28.54995 | 153.86125 | 23344 ft | 353 kts | 168° |
| 2026-04-30 07:47 | -28.57388 | 153.86765 | 23340 ft | 353 kts | 168° |
| 2026-04-30 07:47 | -28.59779 | 153.87404 | 23339 ft | 353 kts | 168° |
| 2026-04-30 07:47 | -28.62172 | 153.88045 | 23340 ft | 353 kts | 168° |
| 2026-04-30 07:48 | -28.64564 | 153.88683 | 23337 ft | 353 kts | 169° |
| 2026-04-30 07:48 | -28.66985 | 153.89096 | 23341 ft | 351 kts | 176° |
| 2026-04-30 07:48 | -28.69418 | 153.89201 | 23340 ft | 351 kts | 182° |
| 2026-04-30 07:48 | -28.71854 | 153.89098 | 23336 ft | 350 kts | 184° |
| 2026-04-30 07:49 | -28.74289 | 153.88946 | 23337 ft | 350 kts | 185° |
| 2026-04-30 07:49 | -28.76723 | 153.88770 | 23338 ft | 350 kts | 185° |
| 2026-04-30 07:49 | -28.79155 | 153.88583 | 23337 ft | 350 kts | 185° |
| 2026-04-30 07:49 | -28.81586 | 153.88390 | 23340 ft | 350 kts | 185° |
| 2026-04-30 07:50 | -28.83195 | 153.88260 | 23340 ft | 350 kts | 185° |
| 2026-04-30 07:50 | -28.85625 | 153.88063 | 23345 ft | 350 kts | 185° |
| 2026-04-30 07:50 | -28.88060 | 153.87864 | 23343 ft | 351 kts | 184° |
| 2026-04-30 07:50 | -28.90493 | 153.87666 | 23348 ft | 351 kts | 184° |
| 2026-04-30 07:51 | -28.92929 | 153.87467 | 23349 ft | 351 kts | 184° |
| 2026-04-30 07:51 | -28.95363 | 153.87268 | 23351 ft | 351 kts | 184° |
| 2026-04-30 07:51 | -28.97802 | 153.87068 | 23348 ft | 351 kts | 184° |
| 2026-04-30 07:51 | -29.00240 | 153.86868 | 23353 ft | 351 kts | 184° |
| 2026-04-30 07:52 | -29.02679 | 153.86669 | 23349 ft | 351 kts | 184° |
| 2026-04-30 07:52 | -29.05116 | 153.86469 | 23352 ft | 351 kts | 185° |
| 2026-04-30 07:52 | -29.07556 | 153.86269 | 23356 ft | 351 kts | 184° |
| 2026-04-30 07:52 | -29.09996 | 153.86069 | 23354 ft | 351 kts | 185° |
| 2026-04-30 07:53 | -29.12434 | 153.85869 | 23359 ft | 351 kts | 184° |
| 2026-04-30 07:53 | -29.14869 | 153.85669 | 23353 ft | 351 kts | 184° |
| 2026-04-30 07:53 | -29.17302 | 153.85469 | 23353 ft | 351 kts | 184° |
| 2026-04-30 07:53 | -29.19733 | 153.85269 | 23352 ft | 350 kts | 184° |
| 2026-04-30 07:54 | -29.22167 | 153.85070 | 23350 ft | 350 kts | 184° |
| 2026-04-30 07:54 | -29.24594 | 153.84870 | 23350 ft | 350 kts | 184° |
| 2026-04-30 07:54 | -29.27021 | 153.84670 | 23353 ft | 350 kts | 184° |
| 2026-04-30 07:54 | -29.29439 | 153.84471 | 23354 ft | 350 kts | 184° |
| 2026-04-30 07:55 | -29.31865 | 153.84272 | 23359 ft | 350 kts | 184° |
| 2026-04-30 07:55 | -29.34289 | 153.84072 | 23358 ft | 349 kts | 184° |
| 2026-04-30 07:55 | -29.36716 | 153.83872 | 23358 ft | 349 kts | 184° |
| 2026-04-30 07:55 | -29.39142 | 153.83673 | 23358 ft | 349 kts | 184° |
| 2026-04-30 07:56 | -29.41563 | 153.83473 | 23362 ft | 349 kts | 184° |
| 2026-04-30 07:56 | -29.43981 | 153.83274 | 23361 ft | 348 kts | 184° |
| 2026-04-30 07:56 | -29.46397 | 153.83074 | 23363 ft | 348 kts | 184° |
| 2026-04-30 07:56 | -29.48812 | 153.82875 | 23364 ft | 348 kts | 184° |
| 2026-04-30 07:57 | -29.51226 | 153.82676 | 23364 ft | 348 kts | 184° |
| 2026-04-30 07:57 | -29.53640 | 153.82476 | 23366 ft | 348 kts | 184° |
| 2026-04-30 07:57 | -29.56053 | 153.82277 | 23366 ft | 348 kts | 184° |
| 2026-04-30 07:57 | -29.58466 | 153.82077 | 23367 ft | 348 kts | 184° |
| 2026-04-30 07:58 | -29.60879 | 153.81878 | 23366 ft | 348 kts | 184° |
| 2026-04-30 07:58 | -29.63281 | 153.81582 | 23365 ft | 348 kts | 188° |
| 2026-04-30 07:58 | -29.65665 | 153.81077 | 23366 ft | 348 kts | 190° |
| 2026-04-30 07:58 | -29.68038 | 153.80538 | 23369 ft | 348 kts | 190° |
| 2026-04-30 07:59 | -29.70417 | 153.79987 | 23370 ft | 348 kts | 190° |
| 2026-04-30 07:59 | -29.72786 | 153.79431 | 23369 ft | 348 kts | 191° |
| 2026-04-30 07:59 | -29.75162 | 153.78872 | 23367 ft | 348 kts | 190° |
| 2026-04-30 08:00 | -29.79907 | 153.77749 | 23370 ft | 348 kts | 191° |
| 2026-04-30 08:00 | -29.82276 | 153.77187 | 23378 ft | 348 kts | 191° |
| 2026-04-30 08:00 | -29.84646 | 153.76624 | 23371 ft | 348 kts | 190° |
| 2026-04-30 08:00 | -29.87017 | 153.76061 | 23378 ft | 348 kts | 190° |
| 2026-04-30 08:01 | -29.89387 | 153.75498 | 23378 ft | 348 kts | 190° |
| 2026-04-30 08:01 | -29.91756 | 153.74935 | 23375 ft | 348 kts | 190° |
| 2026-04-30 08:01 | -29.94125 | 153.74372 | 23377 ft | 348 kts | 190° |
| 2026-04-30 08:01 | -29.96494 | 153.73808 | 23374 ft | 348 kts | 191° |
| 2026-04-30 08:02 | -30.01233 | 153.72680 | 23379 ft | 348 kts | 191° |
| 2026-04-30 08:02 | -30.03605 | 153.72114 | 23380 ft | 348 kts | 190° |
| 2026-04-30 08:03 | -30.08354 | 153.70982 | 23386 ft | 348 kts | 191° |
| 2026-04-30 08:03 | -30.13105 | 153.69848 | 23381 ft | 348 kts | 190° |
| 2026-04-30 08:03 | -30.15479 | 153.69281 | 23386 ft | 348 kts | 190° |
| 2026-04-30 08:04 | -30.17851 | 153.68714 | 23380 ft | 348 kts | 191° |
| 2026-04-30 08:04 | -30.20221 | 153.68147 | 23382 ft | 348 kts | 190° |
| 2026-04-30 08:04 | -30.22590 | 153.67580 | 23385 ft | 348 kts | 190° |
| 2026-04-30 08:04 | -30.24959 | 153.67013 | 23390 ft | 348 kts | 190° |
| 2026-04-30 08:05 | -30.27331 | 153.66445 | 23387 ft | 348 kts | 190° |
| 2026-04-30 08:05 | -30.29702 | 153.65877 | 23390 ft | 348 kts | 190° |
| 2026-04-30 08:05 | -30.32063 | 153.65311 | 23391 ft | 348 kts | 190° |
| 2026-04-30 08:05 | -30.34426 | 153.64712 | 23389 ft | 348 kts | 192° |
| 2026-04-30 08:06 | -30.36778 | 153.64048 | 23387 ft | 348 kts | 192° |
| 2026-04-30 08:06 | -30.39123 | 153.63388 | 23391 ft | 347 kts | 192° |
| 2026-04-30 08:06 | -30.41475 | 153.62729 | 23390 ft | 347 kts | 192° |
| 2026-04-30 08:06 | -30.43823 | 153.62073 | 23391 ft | 347 kts | 192° |
| 2026-04-30 08:07 | -30.46168 | 153.61417 | 23391 ft | 347 kts | 192° |
| 2026-04-30 08:07 | -30.48516 | 153.60761 | 23391 ft | 347 kts | 192° |
| 2026-04-30 08:07 | -30.50857 | 153.60106 | 23389 ft | 347 kts | 192° |
| 2026-04-30 08:07 | -30.53203 | 153.59449 | 23389 ft | 347 kts | 192° |
| 2026-04-30 08:08 | -30.55545 | 153.58794 | 23395 ft | 346 kts | 192° |
| 2026-04-30 08:08 | -30.57891 | 153.58137 | 23396 ft | 346 kts | 192° |
| 2026-04-30 08:08 | -30.60231 | 153.57481 | 23397 ft | 346 kts | 192° |
| 2026-04-30 08:08 | -30.62574 | 153.56825 | 23396 ft | 346 kts | 192° |
| 2026-04-30 08:09 | -30.64916 | 153.56168 | 23399 ft | 346 kts | 192° |
| 2026-04-30 08:09 | -30.67258 | 153.55511 | 23393 ft | 346 kts | 192° |
| 2026-04-30 08:09 | -30.69600 | 153.54853 | 23396 ft | 346 kts | 192° |
| 2026-04-30 08:09 | -30.71943 | 153.54195 | 23397 ft | 346 kts | 192° |
| 2026-04-30 08:10 | -30.74269 | 153.53462 | 23393 ft | 347 kts | 196° |
| 2026-04-30 08:10 | -30.76539 | 153.52497 | 23397 ft | 348 kts | 200° |
| 2026-04-30 08:10 | -30.78780 | 153.51442 | 23395 ft | 348 kts | 201° |
| 2026-04-30 08:10 | -30.81017 | 153.50371 | 23398 ft | 348 kts | 200° |
| 2026-04-30 08:11 | -30.83249 | 153.49289 | 23397 ft | 348 kts | 201° |
| 2026-04-30 08:11 | -30.85482 | 153.48201 | 23398 ft | 348 kts | 201° |
| 2026-04-30 08:11 | -30.87712 | 153.47111 | 23399 ft | 348 kts | 201° |
| 2026-04-30 08:11 | -30.89942 | 153.46020 | 23399 ft | 348 kts | 201° |
| 2026-04-30 08:12 | -30.92170 | 153.44927 | 23407 ft | 348 kts | 201° |
| 2026-04-30 08:12 | -30.94394 | 153.43836 | 23405 ft | 348 kts | 201° |
| 2026-04-30 08:12 | -30.96622 | 153.42743 | 23403 ft | 347 kts | 201° |
| 2026-04-30 08:12 | -30.98849 | 153.41649 | 23405 ft | 347 kts | 201° |
| 2026-04-30 08:13 | -31.01075 | 153.40555 | 23403 ft | 347 kts | 201° |
| 2026-04-30 08:13 | -31.03299 | 153.39461 | 23400 ft | 347 kts | 201° |
| 2026-04-30 08:13 | -31.05527 | 153.38365 | 23409 ft | 347 kts | 201° |
| 2026-04-30 08:13 | -31.07751 | 153.37270 | 23406 ft | 347 kts | 201° |
| 2026-04-30 08:14 | -31.09977 | 153.36174 | 23400 ft | 347 kts | 201° |
| 2026-04-30 08:14 | -31.12200 | 153.35078 | 23408 ft | 347 kts | 201° |
| 2026-04-30 08:14 | -31.14427 | 153.33981 | 23411 ft | 347 kts | 201° |
| 2026-04-30 08:14 | -31.16649 | 153.32885 | 23411 ft | 347 kts | 201° |
| 2026-04-30 08:15 | -31.18875 | 153.31786 | 23405 ft | 347 kts | 201° |
| 2026-04-30 08:15 | -31.21098 | 153.30688 | 23402 ft | 347 kts | 201° |
| 2026-04-30 08:15 | -31.23321 | 153.29590 | 23406 ft | 347 kts | 201° |
| 2026-04-30 08:15 | -31.25544 | 153.28491 | 23407 ft | 347 kts | 201° |
| 2026-04-30 08:16 | -31.27768 | 153.27391 | 23404 ft | 347 kts | 202° |
| 2026-04-30 08:16 | -31.29989 | 153.26292 | 23412 ft | 347 kts | 201° |
| 2026-04-30 08:16 | -31.32214 | 153.25191 | 23404 ft | 347 kts | 201° |
| 2026-04-30 08:16 | -31.34436 | 153.24090 | 23412 ft | 347 kts | 201° |
| 2026-04-30 08:17 | -31.36627 | 153.23004 | 23415 ft | 347 kts | 201° |
| 2026-04-30 08:17 | -31.38877 | 153.21888 | 23411 ft | 347 kts | 201° |
| 2026-04-30 08:17 | -31.41100 | 153.20786 | 23417 ft | 347 kts | 201° |
| 2026-04-30 08:17 | -31.43321 | 153.19683 | 23412 ft | 347 kts | 201° |
| 2026-04-30 08:18 | -31.45544 | 153.18579 | 23414 ft | 347 kts | 201° |
| 2026-04-30 08:18 | -31.47764 | 153.17476 | 23413 ft | 347 kts | 202° |
| 2026-04-30 08:18 | -31.49954 | 153.16388 | 23414 ft | 347 kts | 201° |
| 2026-04-30 08:18 | -31.52175 | 153.15283 | 23410 ft | 347 kts | 202° |
| 2026-04-30 08:19 | -31.54396 | 153.14177 | 23417 ft | 346 kts | 201° |
| 2026-04-30 08:19 | -31.56613 | 153.13074 | 23413 ft | 347 kts | 201° |
| 2026-04-30 08:19 | -31.58833 | 153.11968 | 23410 ft | 347 kts | 202° |
| 2026-04-30 08:19 | -31.61053 | 153.10861 | 23411 ft | 347 kts | 202° |
| 2026-04-30 08:20 | -31.63278 | 153.09751 | 23416 ft | 347 kts | 202° |
| 2026-04-30 08:20 | -31.65506 | 153.08640 | 23413 ft | 348 kts | 202° |
| 2026-04-30 08:20 | -31.67731 | 153.07529 | 23413 ft | 348 kts | 202° |
| 2026-04-30 08:20 | -31.69960 | 153.06415 | 23414 ft | 348 kts | 202° |
| 2026-04-30 08:21 | -31.72189 | 153.05302 | 23413 ft | 348 kts | 202° |
| 2026-04-30 08:21 | -31.74423 | 153.04184 | 23416 ft | 348 kts | 202° |
| 2026-04-30 08:21 | -31.76649 | 153.03071 | 23415 ft | 348 kts | 202° |
| 2026-04-30 08:21 | -31.78882 | 153.01953 | 23416 ft | 348 kts | 202° |
| 2026-04-30 08:22 | -31.81096 | 153.00845 | 23417 ft | 348 kts | 202° |
| 2026-04-30 08:22 | -31.83325 | 152.99727 | 23415 ft | 348 kts | 202° |
| 2026-04-30 08:22 | -31.85553 | 152.98611 | 23416 ft | 348 kts | 202° |
| 2026-04-30 08:22 | -31.87781 | 152.97493 | 23415 ft | 348 kts | 202° |
| 2026-04-30 08:23 | -31.90008 | 152.96375 | 23415 ft | 348 kts | 202° |
| 2026-04-30 08:23 | -31.92234 | 152.95257 | 23416 ft | 348 kts | 202° |
| 2026-04-30 08:23 | -31.94463 | 152.94138 | 23416 ft | 348 kts | 201° |
| 2026-04-30 08:23 | -31.96688 | 152.93019 | 23415 ft | 348 kts | 202° |
| 2026-04-30 08:24 | -31.98913 | 152.91900 | 23418 ft | 348 kts | 202° |
| 2026-04-30 08:24 | -32.01139 | 152.90780 | 23419 ft | 347 kts | 202° |
| 2026-04-30 08:24 | -32.03362 | 152.89661 | 23418 ft | 347 kts | 202° |
| 2026-04-30 08:24 | -32.05583 | 152.88542 | 23419 ft | 347 kts | 202° |
| 2026-04-30 08:25 | -32.07805 | 152.87422 | 23416 ft | 347 kts | 202° |
| 2026-04-30 08:25 | -32.10024 | 152.86303 | 23418 ft | 347 kts | 201° |
| 2026-04-30 08:25 | -32.12216 | 152.85197 | 23417 ft | 347 kts | 202° |
| 2026-04-30 08:25 | -32.14437 | 152.84075 | 23419 ft | 347 kts | 202° |
| 2026-04-30 08:26 | -32.16656 | 152.82955 | 23422 ft | 347 kts | 202° |
| 2026-04-30 08:26 | -32.18875 | 152.81833 | 23418 ft | 347 kts | 202° |
| 2026-04-30 08:26 | -32.21084 | 152.80716 | 23422 ft | 347 kts | 202° |
| 2026-04-30 08:26 | -32.23307 | 152.79591 | 23419 ft | 348 kts | 202° |
| 2026-04-30 08:27 | -32.25524 | 152.78470 | 23389 ft | 349 kts | 202° |
| 2026-04-30 08:27 | -32.27794 | 152.77320 | 22956 ft | 359 kts | 202° |
| 2026-04-30 08:27 | -32.30120 | 152.76142 | 22555 ft | 368 kts | 202° |
| 2026-04-30 08:27 | -32.32494 | 152.74938 | 22129 ft | 375 kts | 202° |
| 2026-04-30 08:28 | -32.34913 | 152.73711 | 21639 ft | 381 kts | 202° |
| 2026-04-30 08:28 | -32.37345 | 152.72476 | 21156 ft | 373 kts | 202° |
| 2026-04-30 08:28 | -32.39662 | 152.71297 | 20671 ft | 352 kts | 202° |
| 2026-04-30 08:28 | -32.41856 | 152.70181 | 20172 ft | 335 kts | 201° |
| 2026-04-30 08:29 | -32.43953 | 152.69114 | 19697 ft | 322 kts | 201° |
| 2026-04-30 08:29 | -32.45953 | 152.68096 | 19209 ft | 311 kts | 201° |
| 2026-04-30 08:29 | -32.47907 | 152.67101 | 18767 ft | 300 kts | 201° |
| 2026-04-30 08:29 | -32.49791 | 152.66142 | 18683 ft | 294 kts | 201° |
| 2026-04-30 08:30 | -32.51705 | 152.65170 | 18455 ft | 311 kts | 201° |
| 2026-04-30 08:30 | -32.53745 | 152.64132 | 17881 ft | 320 kts | 201° |
| 2026-04-30 08:30 | -32.55779 | 152.63094 | 17374 ft | 316 kts | 201° |
| 2026-04-30 08:30 | -32.57792 | 152.62066 | 16880 ft | 315 kts | 201° |
| 2026-04-30 08:31 | -32.59799 | 152.61041 | 16396 ft | 312 kts | 202° |
| 2026-04-30 08:31 | -32.61787 | 152.60025 | 15924 ft | 310 kts | 201° |
| 2026-04-30 08:31 | -32.63764 | 152.59015 | 15464 ft | 309 kts | 202° |
| 2026-04-30 08:31 | -32.65730 | 152.58010 | 15007 ft | 307 kts | 201° |
| 2026-04-30 08:32 | -32.67643 | 152.56880 | 14573 ft | 306 kts | 209° |
| 2026-04-30 08:32 | -32.69412 | 152.55484 | 14128 ft | 306 kts | 215° |
| 2026-04-30 08:32 | -32.70532 | 152.54466 | 13805 ft | 305 kts | 217° |
| 2026-04-30 08:32 | -32.72185 | 152.52919 | 13329 ft | 301 kts | 217° |
| 2026-04-30 08:33 | -32.73828 | 152.51368 | 12872 ft | 302 kts | 217° |
| 2026-04-30 08:33 | -32.75457 | 152.49820 | 12407 ft | 297 kts | 217° |
| 2026-04-30 08:33 | -32.77071 | 152.48284 | 11959 ft | 298 kts | 217° |
| 2026-04-30 08:33 | -32.78677 | 152.46752 | 11526 ft | 294 kts | 217° |
| 2026-04-30 08:34 | -32.80267 | 152.45232 | 11101 ft | 293 kts | 217° |
| 2026-04-30 08:34 | -32.81851 | 152.43718 | 10681 ft | 291 kts | 217° |
| 2026-04-30 08:34 | -32.83417 | 152.42219 | 10271 ft | 289 kts | 217° |
| 2026-04-30 08:34 | -32.84976 | 152.40727 | 9818 ft | 286 kts | 217° |
| 2026-04-30 08:35 | -32.86517 | 152.39251 | 9371 ft | 283 kts | 217° |
| 2026-04-30 08:35 | -32.88052 | 152.37780 | 8938 ft | 283 kts | 217° |
| 2026-04-30 08:35 | -32.89577 | 152.36318 | 8499 ft | 280 kts | 217° |
| 2026-04-30 08:35 | -32.91083 | 152.34873 | 8083 ft | 278 kts | 217° |
| 2026-04-30 08:36 | -32.92587 | 152.33429 | 7680 ft | 276 kts | 217° |
| 2026-04-30 08:36 | -32.93910 | 152.31823 | 7256 ft | 270 kts | 238° |
| 2026-04-30 08:36 | -32.94495 | 152.29761 | 6830 ft | 259 kts | 257° |
| 2026-04-30 08:36 | -32.94849 | 152.27699 | 6372 ft | 250 kts | 258° |
| 2026-04-30 08:37 | -32.95188 | 152.25700 | 5920 ft | 243 kts | 258° |
| 2026-04-30 08:37 | -32.95516 | 152.23762 | 5470 ft | 236 kts | 258° |
| 2026-04-30 08:37 | -32.95840 | 152.21867 | 5015 ft | 231 kts | 258° |
| 2026-04-30 08:37 | -32.96159 | 152.20010 | 4565 ft | 227 kts | 258° |
| 2026-04-30 08:38 | -32.96477 | 152.18179 | 4105 ft | 225 kts | 258° |
| 2026-04-30 08:38 | -32.96797 | 152.16366 | 3640 ft | 223 kts | 258° |
| 2026-04-30 08:38 | -32.97127 | 152.14566 | 3189 ft | 221 kts | 258° |
| 2026-04-30 08:38 | -32.97192 | 152.12813 | 3026 ft | 205 kts | 278° |
| 2026-04-30 08:39 | -32.96963 | 152.11157 | 3004 ft | 203 kts | 282° |
| 2026-04-30 08:39 | -32.96706 | 152.09511 | 3018 ft | 202 kts | 282° |
| 2026-04-30 08:39 | -32.96435 | 152.07887 | 3025 ft | 199 kts | 291° |
| 2026-04-30 08:39 | -32.95838 | 152.06426 | 3003 ft | 188 kts | 305° |
| 2026-04-30 08:40 | -32.95160 | 152.05182 | 3010 ft | 177 kts | 309° |
| 2026-04-30 08:40 | -32.94440 | 152.03985 | 3029 ft | 179 kts | 310° |
| 2026-04-30 08:40 | -32.93698 | 152.02793 | 3014 ft | 178 kts | 310° |
| 2026-04-30 08:40 | -32.92951 | 152.01615 | 3021 ft | 178 kts | 311° |
| 2026-04-30 08:41 | -32.92214 | 152.00462 | 3022 ft | 174 kts | 311° |
| 2026-04-30 08:41 | -32.91468 | 151.99320 | 3038 ft | 176 kts | 313° |
| 2026-04-30 08:41 | -32.90681 | 151.98219 | 2993 ft | 170 kts | 315° |
| 2026-04-30 08:41 | -32.89945 | 151.97240 | 2780 ft | 148 kts | 318° |
| 2026-04-30 08:42 | -32.89259 | 151.96374 | 2570 ft | 140 kts | 319° |
| 2026-04-30 08:42 | -32.88577 | 151.95533 | 2458 ft | 143 kts | 319° |
| 2026-04-30 08:42 | -32.87886 | 151.94693 | 2259 ft | 143 kts | 320° |
| 2026-04-30 08:42 | -32.87200 | 151.93856 | 2027 ft | 139 kts | 319° |
| 2026-04-30 08:43 | -32.86538 | 151.93021 | 1830 ft | 139 kts | 319° |
| 2026-04-30 08:43 | -32.85880 | 151.92175 | 1630 ft | 139 kts | 319° |
| 2026-04-30 08:43 | -32.85231 | 151.91325 | 1441 ft | 139 kts | 318° |
| 2026-04-30 08:43 | -32.84595 | 151.90474 | 1261 ft | 137 kts | 317° |
| 2026-04-30 08:44 | -32.83967 | 151.89619 | 1071 ft | 138 kts | 316° |
| 2026-04-30 08:44 | -32.83354 | 151.88755 | 883 ft | 137 kts | 315° |
| 2026-04-30 08:44 | -32.82745 | 151.87899 | 693 ft | 135 kts | 314° |
| 2026-04-30 08:44 | -32.82135 | 151.87047 | 506 ft | 133 kts | 314° |
| 2026-04-30 08:45 | -32.81533 | 151.86219 | 358 ft | 133 kts | 313° |
| 2026-04-30 08:45 | -32.80940 | 151.85386 | 182 ft | 134 kts | 311° |
| 2026-04-30 08:45 | -32.80333 | 151.84532 | 33 ft | 128 kts | 311° |
| 2026-04-30 08:45 | -32.79895 | 151.83915 | 33 ft | 23 kts | 309° |
| 2026-04-30 08:46 | -32.79828 | 151.83914 | 32 ft | 18 kts | 40° |
| 2026-04-30 08:46 | -32.79797 | 151.83955 | 32 ft | 0 kts | 52° |
| 2026-04-30 08:46 | -32.79791 | 151.83965 | 32 ft | 10 kts | 54° |
| 2026-04-30 08:46 | -32.79719 | 151.84087 | 32 ft | 24 kts | 55° |
| 2026-04-30 08:47 | -32.79725 | 151.84176 | 30 ft | 13 kts | 144° |
| 2026-04-30 08:47 | -32.79710 | 151.84241 | 30 ft | 7 kts | 31° |
| 2026-04-30 08:47 | -32.79698 | 151.84258 | 30 ft | 0 kts | 56° |